Putnam, Connecticut
Current Conditions -  °F | °C
As of 5:52 PM on Saturday 25 Oct 2014 (Local Time) from KIJD Reporting Station
Clear Clear  
Wind Chill: 62°   Ceiling: Unl
Heat Index: 62°   Visibility: 10mi
Dew Point: 41°   Wind: 5mph
Humidity: 46%   Direction: 250°WSW
Pressure: 29.62"   Gusts: NA
Location:  41.92°N, 71.91°W
Report Text: KIJD 252152Z AUTO 25004KT 10SM CLR 17/05 A2962 RMK AO2 SLP031 T01670050
Loading
Personal Weather Stations






























Interactive Weather Map
Tropical Storm Tracking
New forecast layout! Learn more

10-Day Weather Forecast

Advertisements
Track Severe Weather on mobile